createdAt,value
2023-03-15T00:00:05.169Z,0
2023-03-15T00:03:05.165Z,0
2023-03-15T00:04:05.178Z,0
2023-03-15T00:05:05.166Z,0
2023-03-15T00:06:05.181Z,0
2023-03-15T00:07:05.162Z,0
2023-03-15T00:08:05.167Z,0
2023-03-15T00:09:05.213Z,0
2023-03-15T00:10:05.562Z,0
2023-03-15T00:11:05.165Z,0
2023-03-15T00:12:05.168Z,0
2023-03-15T00:13:05.156Z,0
2023-03-15T00:14:05.166Z,0
2023-03-15T00:16:05.280Z,0
2023-03-15T00:17:05.167Z,0
2023-03-15T00:18:05.162Z,0
2023-03-15T00:19:05.198Z,0
2023-03-15T00:20:05.169Z,0
2023-03-15T00:21:05.165Z,0
2023-03-15T00:22:05.156Z,0
2023-03-15T00:24:05.165Z,0
2023-03-15T00:25:05.160Z,0
2023-03-15T00:26:05.170Z,0
2023-03-15T00:27:05.192Z,0
2023-03-15T00:28:05.172Z,0
2023-03-15T00:29:05.173Z,0
2023-03-15T00:30:05.161Z,0
2023-03-15T00:31:05.293Z,0
2023-03-15T00:32:05.162Z,0
2023-03-15T00:33:05.159Z,0
2023-03-15T00:34:05.178Z,0
2023-03-15T00:35:05.165Z,0
2023-03-15T00:37:05.174Z,0
2023-03-15T00:38:05.160Z,0
2023-03-15T00:39:05.183Z,0
2023-03-15T00:40:05.222Z,0
2023-03-15T00:41:05.164Z,0
2023-03-15T00:42:05.160Z,0
2023-03-15T00:43:05.207Z,0
2023-03-15T00:45:05.216Z,0
2023-03-15T00:46:05.203Z,0
2023-03-15T00:47:05.227Z,0
2023-03-15T00:48:05.161Z,0
2023-03-15T00:49:05.168Z,0
2023-03-15T00:50:05.164Z,0
2023-03-15T00:51:05.169Z,0
2023-03-15T00:52:05.170Z,0
2023-03-15T00:53:05.166Z,0
2023-03-15T00:54:05.171Z,0
2023-03-15T00:55:05.173Z,0
2023-03-15T00:56:05.176Z,0
2023-03-15T00:58:05.173Z,0
2023-03-15T00:59:05.168Z,0
2023-03-15T01:00:05.171Z,0
2023-03-15T01:01:05.170Z,0
2023-03-15T01:02:05.315Z,0
2023-03-15T01:03:05.252Z,0
2023-03-15T01:04:05.164Z,0
2023-03-15T01:05:05.173Z,0
2023-03-15T01:06:05.167Z,0
2023-03-15T01:07:05.204Z,0
2023-03-15T01:08:05.195Z,0
2023-03-15T01:10:05.202Z,0
2023-03-15T01:11:05.170Z,0
2023-03-15T01:12:05.172Z,0
2023-03-15T01:13:05.281Z,0
2023-03-15T01:14:05.214Z,0
2023-03-15T01:15:05.170Z,0
2023-03-15T01:17:05.161Z,0
2023-03-15T01:18:05.184Z,0
2023-03-15T01:19:05.171Z,0
2023-03-15T01:20:05.164Z,0
2023-03-15T01:21:05.177Z,0
2023-03-15T01:22:05.164Z,0
2023-03-15T01:23:05.163Z,0
2023-03-15T01:24:05.163Z,0
2023-03-15T01:25:05.189Z,0
2023-03-15T01:26:05.163Z,0
2023-03-15T01:27:05.198Z,0
2023-03-15T01:28:05.173Z,0
2023-03-15T01:29:05.177Z,0
2023-03-15T01:30:05.178Z,0
2023-03-15T01:31:05.274Z,0
2023-03-15T01:32:05.171Z,0
2023-03-15T01:33:05.167Z,0
2023-03-15T01:34:05.218Z,0
2023-03-15T01:35:05.174Z,0
2023-03-15T01:36:05.188Z,0
2023-03-15T01:37:05.158Z,0
2023-03-15T01:38:05.169Z,0
2023-03-15T01:40:05.180Z,0
2023-03-15T01:41:05.211Z,0
2023-03-15T01:42:05.160Z,0
2023-03-15T01:43:05.172Z,0
2023-03-15T01:44:05.163Z,0
2023-03-15T01:45:05.182Z,0
2023-03-15T01:46:05.214Z,0
2023-03-15T01:47:05.239Z,0
2023-03-15T01:48:05.164Z,0
2023-03-15T01:49:05.212Z,0
2023-03-15T01:50:05.240Z,0
2023-03-15T01:51:05.157Z,0
2023-03-15T01:52:05.161Z,0
2023-03-15T01:53:05.160Z,0
2023-03-15T01:54:05.163Z,0
2023-03-15T01:55:05.200Z,0
2023-03-15T01:56:05.169Z,0
2023-03-15T01:57:05.263Z,0
2023-03-15T01:58:05.165Z,0
2023-03-15T01:59:05.208Z,0
2023-03-15T02:00:05.168Z,0
2023-03-15T02:01:05.225Z,0
2023-03-15T02:02:05.211Z,0
2023-03-15T02:03:05.226Z,0
2023-03-15T02:04:05.169Z,0
2023-03-15T02:05:05.160Z,0
2023-03-15T02:06:05.263Z,0
2023-03-15T02:07:05.175Z,0
2023-03-15T02:09:05.160Z,0
2023-03-15T02:10:05.203Z,0
2023-03-15T02:11:05.167Z,0
2023-03-15T02:12:05.165Z,0
2023-03-15T02:13:05.153Z,0
2023-03-15T02:14:05.160Z,0
2023-03-15T02:15:05.171Z,0
2023-03-15T02:16:05.200Z,0
2023-03-15T02:17:05.197Z,0
2023-03-15T02:18:05.171Z,0
2023-03-15T02:20:05.232Z,0
2023-03-15T02:21:05.173Z,0
2023-03-15T02:22:05.160Z,0
2023-03-15T02:23:05.171Z,0
2023-03-15T02:24:05.154Z,0
2023-03-15T02:25:05.243Z,0
2023-03-15T02:26:05.164Z,0
2023-03-15T02:27:05.199Z,0
2023-03-15T02:28:05.298Z,0
2023-03-15T02:29:05.162Z,0
2023-03-15T02:30:05.166Z,0
2023-03-15T02:31:05.171Z,0
2023-03-15T02:33:05.161Z,0
2023-03-15T02:34:05.918Z,0
2023-03-15T02:35:05.188Z,0
2023-03-15T02:36:05.236Z,0
2023-03-15T02:37:05.162Z,0
2023-03-15T02:38:05.169Z,0
2023-03-15T02:39:05.184Z,0
2023-03-15T02:41:05.165Z,0
2023-03-15T02:42:05.164Z,0
2023-03-15T02:43:05.173Z,0
2023-03-15T02:44:05.169Z,0
2023-03-15T02:46:05.225Z,0
2023-03-15T02:47:05.166Z,0
2023-03-15T02:48:05.157Z,0
2023-03-15T02:49:05.165Z,0
2023-03-15T02:50:05.171Z,0
2023-03-15T02:51:05.244Z,0
2023-03-15T02:52:05.165Z,0
2023-03-15T02:54:05.183Z,0
2023-03-15T02:55:05.168Z,0
2023-03-15T02:56:05.165Z,0
2023-03-15T02:57:05.161Z,0
2023-03-15T02:58:05.180Z,0
2023-03-15T02:59:05.164Z,0
2023-03-15T03:00:05.160Z,0
2023-03-15T03:02:05.217Z,0
2023-03-15T03:03:05.175Z,0
2023-03-15T03:04:05.327Z,0
2023-03-15T03:05:05.167Z,0
2023-03-15T03:06:05.161Z,0
2023-03-15T03:07:05.229Z,0
2023-03-15T03:08:05.163Z,0
2023-03-15T03:09:05.194Z,0
2023-03-15T03:10:05.197Z,0
2023-03-15T03:11:05.158Z,0
2023-03-15T03:12:05.164Z,0
2023-03-15T03:13:05.191Z,0
2023-03-15T03:15:05.177Z,0
2023-03-15T03:16:05.166Z,0
2023-03-15T03:17:05.164Z,0
2023-03-15T03:18:05.168Z,0
2023-03-15T03:19:05.167Z,0
2023-03-15T03:20:05.194Z,0
2023-03-15T03:21:05.211Z,0
2023-03-15T03:23:05.160Z,0
2023-03-15T03:24:05.164Z,0
2023-03-15T03:25:05.188Z,0
2023-03-15T03:26:05.171Z,0
2023-03-15T03:27:05.156Z,0
2023-03-15T03:28:05.165Z,0
2023-03-15T03:29:05.164Z,0
2023-03-15T03:30:05.160Z,0
2023-03-15T03:31:05.224Z,0
2023-03-15T03:32:05.155Z,0
2023-03-15T03:35:05.161Z,0
2023-03-15T03:36:05.215Z,0
2023-03-15T03:37:05.160Z,0
2023-03-15T03:38:05.155Z,0
2023-03-15T03:39:05.156Z,0
2023-03-15T03:40:05.164Z,0
2023-03-15T03:41:05.162Z,0
2023-03-15T03:42:05.153Z,0
2023-03-15T03:43:05.156Z,0
2023-03-15T03:44:05.162Z,0
2023-03-15T03:45:05.169Z,0
2023-03-15T03:46:05.217Z,0
2023-03-15T03:47:05.157Z,0
2023-03-15T03:48:05.163Z,0
2023-03-15T03:49:05.169Z,0
2023-03-15T03:50:05.162Z,0
2023-03-15T03:51:05.167Z,0
2023-03-15T03:52:05.162Z,0
2023-03-15T03:53:05.178Z,0
2023-03-15T03:54:05.158Z,0
2023-03-15T03:55:05.170Z,0
2023-03-15T03:56:05.165Z,0
2023-03-15T03:57:05.153Z,0
2023-03-15T03:58:05.171Z,0
2023-03-15T03:59:05.226Z,0
2023-03-15T04:00:05.158Z,0
2023-03-15T04:01:05.149Z,0
2023-03-15T04:02:05.157Z,0
2023-03-15T04:03:05.152Z,0
2023-03-15T04:05:05.157Z,0
2023-03-15T04:06:05.203Z,0
2023-03-15T04:07:05.158Z,0
2023-03-15T04:08:05.174Z,0
2023-03-15T04:09:05.154Z,0
2023-03-15T04:10:05.157Z,0
2023-03-15T04:11:05.554Z,0
2023-03-15T04:12:05.161Z,0
2023-03-15T04:13:05.154Z,0
2023-03-15T04:14:05.195Z,0
2023-03-15T04:15:05.158Z,0
2023-03-15T04:16:05.187Z,0
2023-03-15T04:18:05.154Z,0
2023-03-15T04:19:05.155Z,0
2023-03-15T04:20:05.148Z,0
2023-03-15T04:21:05.161Z,0
2023-03-15T04:22:05.144Z,0
2023-03-15T04:23:05.182Z,0
2023-03-15T04:24:05.213Z,0
2023-03-15T04:25:05.164Z,0
2023-03-15T04:27:05.144Z,0
2023-03-15T04:28:05.164Z,0
2023-03-15T04:29:05.159Z,0
2023-03-15T04:33:05.165Z,0
2023-03-15T04:35:05.175Z,0
2023-03-15T04:37:05.157Z,0
2023-03-15T04:38:05.183Z,0
2023-03-15T04:39:05.198Z,0
2023-03-15T04:40:05.175Z,0
2023-03-15T04:41:05.173Z,0
2023-03-15T04:42:05.169Z,0
2023-03-15T04:43:05.219Z,0
2023-03-15T04:44:05.157Z,0
2023-03-15T04:45:05.294Z,0
2023-03-15T04:46:05.198Z,0
2023-03-15T04:47:05.257Z,0
2023-03-15T04:48:05.281Z,0
2023-03-15T04:49:05.236Z,0
2023-03-15T04:50:05.167Z,0
2023-03-15T04:51:05.169Z,0
2023-03-15T04:55:05.384Z,0
2023-03-15T04:56:05.168Z,0
2023-03-15T04:58:05.155Z,0
2023-03-15T04:59:05.165Z,0
2023-03-15T05:00:05.250Z,0
2023-03-15T05:01:05.248Z,0
2023-03-15T05:02:05.192Z,0
2023-03-15T05:03:05.164Z,0
2023-03-15T05:04:05.171Z,0
2023-03-15T05:05:05.163Z,0
2023-03-15T05:06:05.163Z,0
2023-03-15T05:07:05.172Z,0
2023-03-15T05:08:05.188Z,0
2023-03-15T05:09:05.156Z,0
2023-03-15T05:10:05.154Z,0
2023-03-15T05:11:05.198Z,0
2023-03-15T05:12:05.161Z,0
2023-03-15T05:13:05.187Z,0
2023-03-15T05:14:05.153Z,0
2023-03-15T05:15:05.190Z,0
2023-03-15T05:16:05.185Z,0
2023-03-15T05:17:05.209Z,0
2023-03-15T05:19:05.157Z,0
2023-03-15T05:20:05.169Z,0
2023-03-15T05:22:05.163Z,0
2023-03-15T05:23:05.176Z,0
2023-03-15T05:24:05.293Z,0
2023-03-15T05:25:05.186Z,0
2023-03-15T05:26:05.192Z,0
2023-03-15T05:27:05.163Z,0
2023-03-15T05:28:05.168Z,0
2023-03-15T05:29:05.167Z,0
2023-03-15T05:30:05.170Z,0
2023-03-15T05:31:05.172Z,0
2023-03-15T05:32:05.264Z,0
2023-03-15T05:33:05.182Z,0
2023-03-15T05:34:05.247Z,0
2023-03-15T05:35:05.162Z,0
2023-03-15T05:36:05.168Z,0
2023-03-15T05:38:05.186Z,0
2023-03-15T05:39:05.162Z,0
2023-03-15T05:40:05.173Z,0
2023-03-15T05:41:05.164Z,0
2023-03-15T05:42:05.166Z,0
2023-03-15T05:43:05.169Z,0
2023-03-15T05:44:05.170Z,0
2023-03-15T05:45:05.202Z,0
2023-03-15T05:46:05.331Z,0
2023-03-15T05:47:05.171Z,0
2023-03-15T05:48:05.161Z,0
2023-03-15T05:49:05.161Z,0
2023-03-15T05:51:05.180Z,0
2023-03-15T05:52:05.165Z,0
2023-03-15T05:53:05.162Z,0
2023-03-15T05:54:05.175Z,0
2023-03-15T05:55:05.211Z,0
2023-03-15T05:56:05.553Z,0
2023-03-15T05:57:05.195Z,0
2023-03-15T05:59:05.176Z,0
2023-03-15T06:00:05.163Z,0
2023-03-15T06:01:05.184Z,0
2023-03-15T06:02:05.166Z,0
2023-03-15T06:03:05.181Z,0
2023-03-15T06:04:05.228Z,0
2023-03-15T06:05:05.159Z,0
2023-03-15T06:06:05.154Z,0
2023-03-15T06:07:05.175Z,0
2023-03-15T06:08:05.250Z,0
2023-03-15T06:09:05.155Z,0
2023-03-15T06:10:05.171Z,0
2023-03-15T06:12:05.161Z,0
2023-03-15T06:13:05.155Z,0
2023-03-15T06:14:05.155Z,0
2023-03-15T06:15:05.155Z,0
2023-03-15T06:16:05.164Z,0
2023-03-15T06:17:05.187Z,0
2023-03-15T06:18:05.158Z,0
2023-03-15T06:20:05.181Z,0
2023-03-15T06:21:05.174Z,0
2023-03-15T06:22:05.157Z,0
2023-03-15T06:23:05.163Z,0
2023-03-15T06:24:05.155Z,0
2023-03-15T06:25:05.203Z,0
2023-03-15T06:26:05.155Z,0
2023-03-15T06:27:05.156Z,0
2023-03-15T06:28:05.260Z,0
2023-03-15T06:29:05.179Z,0
2023-03-15T06:31:05.218Z,0
2023-03-15T06:32:05.164Z,0
2023-03-15T06:33:05.216Z,0
2023-03-15T06:34:05.156Z,0
2023-03-15T06:35:05.163Z,0
2023-03-15T06:36:05.206Z,0
2023-03-15T06:37:05.179Z,0
2023-03-15T06:38:05.169Z,0
2023-03-15T06:39:05.162Z,0
2023-03-15T06:41:05.185Z,0
2023-03-15T06:42:05.154Z,0
2023-03-15T06:43:05.146Z,0
2023-03-15T06:44:05.154Z,0
2023-03-15T06:45:05.169Z,0
2023-03-15T06:46:05.213Z,0
2023-03-15T06:47:05.162Z,0
2023-03-15T06:48:05.182Z,0
2023-03-15T06:49:05.150Z,0
2023-03-15T06:50:05.163Z,0
2023-03-15T06:51:05.150Z,0
2023-03-15T06:52:05.180Z,0
2023-03-15T06:53:05.162Z,0
2023-03-15T06:54:05.163Z,0
2023-03-15T06:55:05.153Z,0
2023-03-15T06:56:05.159Z,0
2023-03-15T06:57:05.163Z,0
2023-03-15T06:58:05.154Z,0
2023-03-15T06:59:05.204Z,0
2023-03-15T07:00:05.158Z,0
2023-03-15T07:01:05.260Z,0
2023-03-15T07:02:05.166Z,0
2023-03-15T07:03:05.174Z,0
2023-03-15T07:04:07.192Z,0
2023-03-15T07:05:05.166Z,0
2023-03-15T07:06:05.159Z,0
2023-03-15T07:07:05.159Z,0
2023-03-15T07:08:05.243Z,0
2023-03-15T07:09:05.159Z,0
2023-03-15T07:10:05.162Z,0
2023-03-15T07:11:05.155Z,0
2023-03-15T07:12:05.185Z,0
2023-03-15T07:13:05.191Z,0
2023-03-15T07:15:05.165Z,0
2023-03-15T07:16:05.228Z,0
2023-03-15T07:17:05.173Z,0
2023-03-15T07:18:05.172Z,0
2023-03-15T07:19:05.164Z,0
2023-03-15T07:20:05.215Z,0
2023-03-15T07:21:05.165Z,0
2023-03-15T07:22:05.163Z,0
2023-03-15T07:23:05.175Z,0
2023-03-15T07:24:05.166Z,0
2023-03-15T07:25:05.162Z,0
2023-03-15T07:26:05.175Z,0
2023-03-15T07:27:05.157Z,0
2023-03-15T07:28:05.158Z,0
2023-03-15T07:29:05.173Z,0
2023-03-15T07:30:05.229Z,0
2023-03-15T07:31:05.162Z,0
2023-03-15T07:32:05.190Z,0
2023-03-15T07:34:05.170Z,0
2023-03-15T07:35:05.163Z,0
2023-03-15T07:36:05.161Z,0
2023-03-15T07:37:05.168Z,0
2023-03-15T07:38:05.159Z,0
2023-03-15T07:39:05.176Z,0
2023-03-15T07:40:05.163Z,0
2023-03-15T07:41:05.173Z,0
2023-03-15T07:42:05.162Z,0
2023-03-15T07:43:05.163Z,0
2023-03-15T07:44:05.159Z,0
2023-03-15T07:45:05.158Z,0
2023-03-15T07:46:05.159Z,0
2023-03-15T07:47:05.219Z,0
2023-03-15T07:48:05.171Z,0
2023-03-15T07:49:05.155Z,0
2023-03-15T07:50:05.181Z,0
2023-03-15T07:51:05.197Z,0
2023-03-15T07:52:05.155Z,0
2023-03-15T07:53:05.161Z,0
2023-03-15T07:55:05.158Z,0
2023-03-15T07:56:05.150Z,0
2023-03-15T07:57:05.163Z,0
2023-03-15T07:58:05.158Z,0
2023-03-15T07:59:05.159Z,0
2023-03-15T08:00:05.164Z,0
2023-03-15T08:01:05.207Z,0
2023-03-15T08:02:05.193Z,0
2023-03-15T08:03:05.246Z,0
2023-03-15T08:04:05.181Z,0
2023-03-15T08:05:05.202Z,0
2023-03-15T08:06:05.164Z,0
2023-03-15T08:08:05.161Z,0
2023-03-15T08:09:05.159Z,0
2023-03-15T08:10:05.158Z,0
2023-03-15T08:11:05.178Z,0
2023-03-15T08:12:05.172Z,0
2023-03-15T08:13:05.170Z,0
2023-03-15T08:14:05.174Z,0
2023-03-15T08:16:05.229Z,0
2023-03-15T08:17:05.177Z,0
2023-03-15T08:18:06.418Z,0
2023-03-15T08:19:05.155Z,0
2023-03-15T08:20:05.172Z,0
2023-03-15T08:21:05.163Z,0
2023-03-15T08:22:05.161Z,0
2023-03-15T08:23:05.160Z,0
2023-03-15T08:24:05.158Z,0
2023-03-15T08:25:05.163Z,0
2023-03-15T08:26:05.165Z,0
2023-03-15T08:27:05.812Z,0
2023-03-15T08:28:05.191Z,0
2023-03-15T08:29:05.165Z,0
2023-03-15T08:30:05.160Z,0
2023-03-15T08:31:05.155Z,0
2023-03-15T08:32:05.261Z,0
2023-03-15T08:33:05.389Z,0
2023-03-15T08:34:05.164Z,0
2023-03-15T08:35:05.173Z,0
2023-03-15T08:36:05.278Z,0
2023-03-15T08:37:05.166Z,0
2023-03-15T08:38:05.182Z,0
2023-03-15T08:39:05.169Z,0
2023-03-15T08:40:05.180Z,0
2023-03-15T08:41:05.166Z,0
2023-03-15T08:42:05.155Z,0
2023-03-15T08:43:05.158Z,0
2023-03-15T08:44:05.160Z,0
2023-03-15T08:45:05.159Z,0
2023-03-15T08:46:05.247Z,0
2023-03-15T08:48:05.169Z,0
2023-03-15T08:49:05.165Z,0
2023-03-15T08:50:05.162Z,0
2023-03-15T08:51:05.163Z,0
2023-03-15T08:52:05.160Z,0
2023-03-15T08:53:05.170Z,0
2023-03-15T08:54:05.162Z,0
2023-03-15T08:55:05.165Z,0
2023-03-15T08:56:05.160Z,0
2023-03-15T08:57:05.160Z,0
2023-03-15T08:58:05.161Z,0
2023-03-15T08:59:05.204Z,0
2023-03-15T09:00:05.183Z,0
2023-03-15T09:01:05.163Z,0
2023-03-15T09:02:05.221Z,3
2023-03-15T09:03:05.177Z,0
2023-03-15T09:04:05.187Z,0
2023-03-15T09:05:05.229Z,0
2023-03-15T09:06:05.168Z,0
2023-03-15T09:07:05.156Z,0
2023-03-15T09:09:05.155Z,0
2023-03-15T09:10:05.728Z,419
2023-03-15T09:11:05.163Z,506
2023-03-15T09:12:05.179Z,597
2023-03-15T09:13:05.164Z,679
2023-03-15T09:14:05.164Z,670
2023-03-15T09:15:06.977Z,676
2023-03-15T09:16:05.153Z,0
2023-03-15T09:17:05.202Z,0
2023-03-15T09:18:05.153Z,46
2023-03-15T09:19:05.160Z,528
2023-03-15T09:20:05.170Z,575
2023-03-15T09:21:05.152Z,0
2023-03-15T09:22:16.848Z,0
2023-03-15T09:23:05.156Z,231
2023-03-15T09:24:05.162Z,264
2023-03-15T09:25:05.192Z,430
2023-03-15T09:26:05.169Z,510
2023-03-15T09:28:05.163Z,553
2023-03-15T09:29:05.175Z,567
2023-03-15T09:30:05.212Z,541
2023-03-15T09:31:05.174Z,37
2023-03-15T09:32:05.179Z,0
2023-03-15T09:33:05.295Z,0
2023-03-15T09:34:05.217Z,0
2023-03-15T09:35:05.176Z,0
2023-03-15T09:36:05.252Z,0
2023-03-15T09:37:05.187Z,0
2023-03-15T09:38:05.179Z,0
2023-03-15T09:39:05.166Z,0
2023-03-15T09:41:05.173Z,0
2023-03-15T09:42:06.355Z,0
2023-03-15T09:43:05.184Z,0
2023-03-15T09:44:05.189Z,0
2023-03-15T09:45:05.172Z,0
2023-03-15T09:46:05.216Z,206
2023-03-15T09:47:05.178Z,544
2023-03-15T09:49:05.178Z,616
2023-03-15T09:50:05.215Z,373
2023-03-15T09:51:05.175Z,98
2023-03-15T09:52:05.167Z,8
2023-03-15T09:53:05.170Z,1
2023-03-15T09:54:05.189Z,1
2023-03-15T09:55:05.219Z,1
2023-03-15T09:56:05.196Z,1
2023-03-15T09:57:05.204Z,1
2023-03-15T09:58:05.188Z,1
2023-03-15T09:59:05.183Z,1
2023-03-15T10:00:05.184Z,1
2023-03-15T10:02:05.259Z,1
2023-03-15T10:03:05.188Z,2
2023-03-15T10:04:05.228Z,1
2023-03-15T10:05:05.210Z,1
2023-03-15T10:06:05.187Z,1
2023-03-15T10:07:05.186Z,1
2023-03-15T10:08:05.207Z,1
2023-03-15T10:09:05.229Z,1
2023-03-15T10:10:05.198Z,1
2023-03-15T10:11:05.215Z,1
2023-03-15T10:12:05.228Z,1
2023-03-15T10:13:05.205Z,1
2023-03-15T10:14:05.248Z,0
2023-03-15T10:15:05.242Z,1
2023-03-15T10:16:05.303Z,1
2023-03-15T10:17:05.187Z,1
2023-03-15T10:18:05.240Z,1
2023-03-15T10:19:05.257Z,0
2023-03-15T10:20:05.194Z,0
2023-03-15T10:21:07.523Z,0
2023-03-15T10:23:05.182Z,0
2023-03-15T10:24:05.202Z,0
2023-03-15T10:25:05.216Z,0
2023-03-15T10:26:05.193Z,0
2023-03-15T10:27:05.198Z,0
2023-03-15T10:28:05.186Z,0
2023-03-15T10:29:05.190Z,0
2023-03-15T10:31:05.256Z,0
2023-03-15T10:32:05.216Z,1
2023-03-15T10:33:05.273Z,0
2023-03-15T10:34:05.204Z,1
2023-03-15T10:35:05.203Z,1
2023-03-15T10:36:11.066Z,1
2023-03-15T10:37:05.206Z,0
2023-03-15T10:38:05.191Z,1
2023-03-15T10:39:05.196Z,1
2023-03-15T10:40:05.189Z,0
2023-03-15T10:41:05.202Z,1
2023-03-15T10:42:05.199Z,1
2023-03-15T10:44:05.192Z,1
2023-03-15T10:45:05.286Z,1
2023-03-15T10:46:05.186Z,1
2023-03-15T10:47:21.441Z,1
2023-03-15T10:48:05.230Z,0
2023-03-15T10:49:05.190Z,1
2023-03-15T10:50:05.189Z,1
2023-03-15T10:51:05.192Z,2
2023-03-15T10:52:05.193Z,1
2023-03-15T10:53:05.196Z,1
2023-03-15T10:54:05.201Z,0
2023-03-15T10:55:05.876Z,0
2023-03-15T10:56:05.257Z,1
2023-03-15T10:57:05.191Z,1
2023-03-15T10:58:05.188Z,1
2023-03-15T10:59:12.885Z,0
2023-03-15T11:00:05.195Z,0
2023-03-15T11:01:05.202Z,0
2023-03-15T11:03:05.266Z,0
2023-03-15T11:04:05.199Z,1
2023-03-15T11:05:05.192Z,0
2023-03-15T11:06:12.420Z,1
2023-03-15T11:07:05.259Z,1
2023-03-15T11:08:05.197Z,1
2023-03-15T11:09:05.178Z,1
2023-03-15T11:10:05.176Z,1
2023-03-15T11:11:05.183Z,0
2023-03-15T11:12:05.186Z,1
2023-03-15T11:13:05.307Z,1
2023-03-15T11:14:05.192Z,1
2023-03-15T11:15:05.224Z,0
2023-03-15T11:16:05.237Z,1
2023-03-15T11:17:05.169Z,0
2023-03-15T11:18:05.174Z,1
2023-03-15T11:19:05.184Z,0
2023-03-15T11:20:05.188Z,0
2023-03-15T11:21:05.174Z,1
2023-03-15T11:22:05.174Z,1
2023-03-15T11:24:05.204Z,0
2023-03-15T11:25:05.186Z,0
2023-03-15T11:26:05.178Z,1
2023-03-15T11:27:05.181Z,1
2023-03-15T11:28:05.177Z,1
2023-03-15T11:29:05.194Z,0
2023-03-15T11:30:05.182Z,1
2023-03-15T11:31:05.257Z,0
2023-03-15T11:32:05.194Z,1
2023-03-15T11:33:05.271Z,1
2023-03-15T11:34:05.178Z,1
2023-03-15T11:35:05.194Z,0
2023-03-15T11:36:05.281Z,0
2023-03-15T11:37:08.820Z,1
2023-03-15T11:38:15.635Z,0
2023-03-15T11:39:05.183Z,1
2023-03-15T11:40:11.612Z,1
2023-03-15T11:41:05.183Z,0
2023-03-15T11:42:05.182Z,1
2023-03-15T11:43:05.192Z,0
2023-03-15T11:44:05.199Z,1
2023-03-15T11:45:05.198Z,0
2023-03-15T11:47:05.192Z,0
2023-03-15T11:48:05.188Z,0
2023-03-15T11:49:05.188Z,0
2023-03-15T11:50:05.206Z,0
2023-03-15T11:51:05.195Z,0
2023-03-15T11:52:05.194Z,0
2023-03-15T11:53:05.254Z,0
2023-03-15T11:56:05.190Z,0
2023-03-15T11:57:05.186Z,0
2023-03-15T11:58:05.191Z,0
2023-03-15T11:59:05.191Z,0
2023-03-15T12:00:05.274Z,0
2023-03-15T12:01:05.190Z,0
2023-03-15T12:02:05.315Z,0
2023-03-15T12:03:05.239Z,0
2023-03-15T12:04:05.189Z,0
2023-03-15T12:06:05.341Z,0
2023-03-15T12:07:05.269Z,0
2023-03-15T12:08:05.202Z,0
2023-03-15T12:09:05.222Z,0
2023-03-15T12:10:05.196Z,0
2023-03-15T12:11:05.195Z,0
2023-03-15T12:12:05.192Z,0
2023-03-15T12:13:05.194Z,0
2023-03-15T12:14:05.209Z,0
2023-03-15T12:15:05.312Z,0
2023-03-15T12:16:05.199Z,0
2023-03-15T12:17:05.202Z,0
2023-03-15T12:18:05.192Z,0
2023-03-15T12:19:05.197Z,0
2023-03-15T12:20:05.193Z,0
2023-03-15T12:21:05.192Z,0
2023-03-15T12:22:05.214Z,0
2023-03-15T12:23:05.210Z,0
2023-03-15T12:24:05.233Z,2
2023-03-15T12:25:05.228Z,1
2023-03-15T12:27:05.192Z,0
2023-03-15T12:28:09.021Z,0
2023-03-15T12:29:05.196Z,0
2023-03-15T12:30:05.199Z,0
2023-03-15T12:31:05.317Z,0
2023-03-15T12:32:05.193Z,0
2023-03-15T12:33:05.213Z,0
2023-03-15T12:34:05.262Z,0
2023-03-15T12:35:05.194Z,0
2023-03-15T12:36:05.226Z,0
2023-03-15T12:37:05.196Z,0
2023-03-15T12:38:05.207Z,0
2023-03-15T12:39:05.194Z,0
2023-03-15T12:40:05.221Z,0
2023-03-15T12:41:05.184Z,0
2023-03-15T12:42:05.193Z,0
2023-03-15T12:43:05.200Z,0
2023-03-15T12:44:05.193Z,0
2023-03-15T12:45:05.186Z,0
2023-03-15T12:46:05.244Z,0
2023-03-15T12:49:05.191Z,0
2023-03-15T12:51:05.236Z,0
2023-03-15T12:52:05.191Z,0
2023-03-15T12:53:05.204Z,0
2023-03-15T12:54:05.212Z,0
2023-03-15T12:56:08.846Z,0
2023-03-15T12:57:05.209Z,0
2023-03-15T12:58:05.241Z,0
2023-03-15T12:59:05.188Z,0
2023-03-15T13:00:05.202Z,0
2023-03-15T13:01:05.259Z,0
2023-03-15T13:02:05.195Z,0
2023-03-15T13:03:05.216Z,0
2023-03-15T13:04:05.196Z,0
2023-03-15T13:05:05.198Z,0
2023-03-15T13:07:05.223Z,0
2023-03-15T13:08:05.191Z,0
2023-03-15T13:09:05.186Z,0
2023-03-15T13:10:05.211Z,0
2023-03-15T13:11:05.209Z,0
2023-03-15T13:12:05.553Z,0
2023-03-15T13:13:05.193Z,0
2023-03-15T13:14:05.193Z,0
2023-03-15T13:15:05.228Z,0
2023-03-15T13:16:05.254Z,0
2023-03-15T13:17:06.967Z,0
2023-03-15T13:18:05.205Z,0
2023-03-15T13:20:05.200Z,0
2023-03-15T13:21:06.362Z,0
2023-03-15T13:22:05.191Z,0
2023-03-15T13:23:05.197Z,0
2023-03-15T13:24:05.194Z,0
2023-03-15T13:25:05.216Z,0
2023-03-15T13:26:05.234Z,1
2023-03-15T13:28:05.197Z,1
2023-03-15T13:29:05.200Z,1
2023-03-15T13:30:05.197Z,0
2023-03-15T13:31:05.229Z,0
2023-03-15T13:32:05.265Z,1
2023-03-15T13:33:05.283Z,1
2023-03-15T13:34:05.197Z,2
2023-03-15T13:35:05.204Z,1
2023-03-15T13:36:05.212Z,0
2023-03-15T13:37:05.205Z,1
2023-03-15T13:38:05.203Z,1
2023-03-15T13:39:05.214Z,0
2023-03-15T13:41:05.245Z,0
2023-03-15T13:42:05.211Z,1
2023-03-15T13:43:05.213Z,1
2023-03-15T13:44:05.198Z,0
2023-03-15T13:45:05.202Z,0
2023-03-15T13:46:05.257Z,1
2023-03-15T13:50:05.205Z,1
2023-03-15T13:51:05.212Z,1
2023-03-15T13:52:05.205Z,1
2023-03-15T13:53:05.200Z,0
2023-03-15T13:54:05.202Z,1
2023-03-15T13:55:05.199Z,0
2023-03-15T13:56:05.206Z,1
2023-03-15T13:57:05.230Z,1
2023-03-15T13:58:05.210Z,0
2023-03-15T14:00:05.201Z,0
2023-03-15T14:02:05.283Z,0
2023-03-15T14:03:05.220Z,0
2023-03-15T14:04:05.208Z,1
2023-03-15T14:05:05.210Z,0
2023-03-15T14:06:05.205Z,1
2023-03-15T14:07:05.210Z,1
2023-03-15T14:08:05.202Z,0
2023-03-15T14:09:05.221Z,0
2023-03-15T14:10:05.200Z,1
2023-03-15T14:11:05.198Z,0
2023-03-15T14:12:05.203Z,1
2023-03-15T14:13:05.209Z,1
2023-03-15T14:14:05.210Z,1
2023-03-15T14:15:05.233Z,1
2023-03-15T14:16:05.287Z,0
2023-03-15T14:17:06.231Z,0
2023-03-15T14:18:05.242Z,1
2023-03-15T14:19:05.206Z,1
2023-03-15T14:21:05.201Z,1
2023-03-15T14:22:05.210Z,1
2023-03-15T14:23:05.212Z,0
2023-03-15T14:24:05.213Z,1
2023-03-15T14:25:05.207Z,1
2023-03-15T14:26:05.204Z,1
2023-03-15T14:27:05.202Z,1
2023-03-15T14:28:05.253Z,1
2023-03-15T14:29:05.222Z,1
2023-03-15T14:30:05.204Z,1
2023-03-15T14:31:05.247Z,1
2023-03-15T14:32:05.207Z,1
2023-03-15T14:33:05.313Z,0
2023-03-15T14:34:05.219Z,1
2023-03-15T14:35:05.207Z,0
2023-03-15T14:36:05.236Z,1
2023-03-15T14:37:05.209Z,1
2023-03-15T14:38:05.214Z,1
2023-03-15T14:39:05.215Z,1
2023-03-15T14:40:05.222Z,1
2023-03-15T14:42:05.412Z,1
2023-03-15T14:43:05.204Z,0
2023-03-15T14:44:05.220Z,1
2023-03-15T14:45:05.251Z,0
2023-03-15T14:46:07.290Z,0
2023-03-15T14:47:05.208Z,0
2023-03-15T14:48:05.219Z,1
2023-03-15T14:49:05.216Z,0
2023-03-15T14:50:05.242Z,0
2023-03-15T14:51:05.213Z,0
2023-03-15T14:52:05.231Z,0
2023-03-15T14:53:05.211Z,0
2023-03-15T14:55:05.209Z,0
2023-03-15T14:56:05.220Z,1
2023-03-15T14:57:05.210Z,1
2023-03-15T14:58:05.240Z,1
2023-03-15T14:59:05.261Z,1
2023-03-15T15:00:05.208Z,1
2023-03-15T15:01:05.290Z,1
2023-03-15T15:03:05.208Z,0
2023-03-15T15:04:05.242Z,0
2023-03-15T15:05:05.271Z,1
2023-03-15T15:06:05.258Z,0
2023-03-15T15:07:05.214Z,0
2023-03-15T15:08:05.235Z,0
2023-03-15T15:09:05.216Z,0
2023-03-15T15:10:05.214Z,0
2023-03-15T15:11:05.279Z,0
2023-03-15T15:12:05.212Z,0
2023-03-15T15:14:05.217Z,0
2023-03-15T15:15:05.236Z,0
2023-03-15T15:16:05.516Z,0
2023-03-15T15:17:05.220Z,0
2023-03-15T15:18:05.213Z,0
2023-03-15T15:19:05.208Z,0
2023-03-15T15:20:05.272Z,0
2023-03-15T15:21:05.243Z,0
2023-03-15T15:22:05.222Z,0
2023-03-15T15:23:05.221Z,1
2023-03-15T15:24:05.237Z,0
2023-03-15T15:25:05.211Z,0
2023-03-15T15:26:05.212Z,0
2023-03-15T15:27:05.217Z,0
2023-03-15T15:28:05.339Z,1
2023-03-15T15:29:05.220Z,1
2023-03-15T15:30:05.396Z,1
2023-03-15T15:31:05.222Z,1
2023-03-15T15:32:05.334Z,1
2023-03-15T15:33:05.227Z,1
2023-03-15T15:35:05.217Z,1
2023-03-15T15:36:05.260Z,1
2023-03-15T15:37:05.222Z,0
2023-03-15T15:38:05.210Z,1
2023-03-15T15:39:06.990Z,1
2023-03-15T15:40:05.212Z,0
2023-03-15T15:41:05.217Z,1
2023-03-15T15:43:05.218Z,0
2023-03-15T15:44:05.228Z,1
2023-03-15T15:45:05.220Z,1
2023-03-15T15:46:05.277Z,1
2023-03-15T15:47:05.221Z,1
2023-03-15T15:48:05.220Z,1
2023-03-15T15:49:05.229Z,1
2023-03-15T15:50:05.215Z,1
2023-03-15T15:51:05.211Z,1
2023-03-15T15:52:05.221Z,1
2023-03-15T15:53:05.218Z,1
2023-03-15T15:54:05.205Z,1
2023-03-15T15:56:05.219Z,0
2023-03-15T15:57:05.216Z,1
2023-03-15T15:58:05.222Z,1
2023-03-15T15:59:05.228Z,1
2023-03-15T16:00:05.211Z,0
2023-03-15T16:01:05.260Z,1
2023-03-15T16:02:05.242Z,0
2023-03-15T16:03:05.305Z,1
2023-03-15T16:04:05.229Z,1
2023-03-15T16:05:05.209Z,1
2023-03-15T16:06:05.212Z,0
2023-03-15T16:07:05.215Z,1
2023-03-15T16:08:05.222Z,1
2023-03-15T16:09:05.216Z,1